Linhe, China
Current Conditions -  °F | °C
As of 10:00 PM on Monday 26 Jan 2015 (Local Time) from ZBHH Reporting Station
Clear Clear  
Wind Chill: -7°   Ceiling: Unl
Heat Index:   Visibility: 6mi
Dew Point: -6°   Wind: 7mph
Humidity: 61%   Direction: 30°NNE
Pressure: 30.53"   Gusts: NA
Location:  40.83°N, 107.5°E
Report Text: ZBHH 261400Z 03003MPS CAVOK M15/M21 Q1034 NOSIG
Loading
Personal Weather Stations






























Interactive Weather Map New forecast layout! Learn more

10-Day Weather Forecast

Advertisements
Track Severe Weather on mobile